Nisku, Canada
Current Conditions -  °F | °C
As of 3:00 PM on Tuesday 21 Oct 2014 (Local Time) from CYEG Reporting Station
Broken Clouds Broken Clouds  
Wind Chill: 13°   Ceiling: 22000
Heat Index: 13°   Visibility: 15mi
Dew Point:   Wind: 3mph
Humidity: 54%   Direction: 210°SSW
Pressure: 29.63"   Gusts: NA
Location:  53.33°N, 113.53°W
Report Text: CYEG 212100Z 21003KT 150V250 15SM FEW075 BKN220 BKN270 13/04 A2963 RMK AC1CI5CI2 AC TR SLP049 DENSITY ALT 3000FT
Loading
Personal Weather Stations






























Interactive Weather Map
Tropical Storm Tracking
New forecast layout! Learn more

10-Day Weather Forecast

Advertisements
Track Severe Weather on mobile